createdAt,value
2023-04-05T00:01:38.054Z,8.60
2023-04-05T00:04:08.149Z,8.61
2023-04-05T00:06:38.043Z,8.62
2023-04-05T00:09:07.530Z,8.64
2023-04-05T00:11:36.477Z,8.66
2023-04-05T00:14:05.249Z,8.67
2023-04-05T00:16:33.912Z,8.67
2023-04-05T00:19:02.213Z,8.68
2023-04-05T00:21:31.721Z,8.69
2023-04-05T00:24:00.015Z,8.69
2023-04-05T00:26:28.721Z,8.70
2023-04-05T00:28:59.085Z,8.71
2023-04-05T00:31:27.422Z,8.72
2023-04-05T00:33:55.951Z,8.73
2023-04-05T00:36:24.302Z,8.73
2023-04-05T00:38:53.046Z,8.73
2023-04-05T00:41:21.404Z,8.71
2023-04-05T00:43:49.748Z,8.69
2023-04-05T00:46:19.665Z,8.66
2023-04-05T00:48:49.008Z,8.67
2023-04-05T00:51:17.420Z,8.66
2023-04-05T00:53:48.507Z,8.65
2023-04-05T00:56:16.933Z,8.67
2023-04-05T00:58:52.263Z,8.67
2023-04-05T01:01:22.595Z,8.69
2023-04-05T01:03:54.128Z,8.69
2023-04-05T01:06:42.994Z,8.70
2023-04-05T01:09:17.538Z,8.72
2023-04-05T01:11:46.210Z,8.72
2023-04-05T01:14:14.797Z,8.74
2023-04-05T01:16:43.905Z,8.75
2023-04-05T01:19:13.727Z,8.78
2023-04-05T01:22:29.278Z,8.79
2023-04-05T01:25:21.748Z,8.79
2023-04-05T01:27:59.346Z,8.79
2023-04-05T01:30:33.988Z,8.78
2023-04-05T01:33:23.962Z,8.79
2023-04-05T01:36:04.124Z,8.81
2023-04-05T01:38:32.637Z,8.82
2023-04-05T01:41:00.835Z,8.82
2023-04-05T01:43:32.529Z,8.83
2023-04-05T01:46:02.420Z,8.86
2023-04-05T01:48:32.564Z,8.88
2023-04-05T01:51:02.496Z,8.89
2023-04-05T01:53:31.046Z,8.90
2023-04-05T01:56:02.620Z,8.92
2023-04-05T01:58:31.554Z,8.93
2023-04-05T02:01:00.627Z,8.95
2023-04-05T02:03:30.402Z,8.98
2023-04-05T02:05:58.743Z,9.00
2023-04-05T02:08:26.990Z,9.00
2023-04-05T02:10:55.714Z,9.00
2023-04-05T02:13:26.315Z,8.99
2023-04-05T02:15:57.398Z,8.99
2023-04-05T02:18:31.509Z,8.97
2023-04-05T02:21:08.179Z,8.95
2023-04-05T02:23:36.864Z,8.92
2023-04-05T02:26:05.574Z,8.91
2023-04-05T02:28:36.210Z,8.89
2023-04-05T02:31:11.198Z,8.89
2023-04-05T02:33:41.293Z,8.87
2023-04-05T02:36:11.877Z,8.84
2023-04-05T02:38:40.966Z,8.83
2023-04-05T02:41:14.290Z,8.84
2023-04-05T02:43:43.071Z,8.84
2023-04-05T02:46:11.751Z,8.83
2023-04-05T02:48:41.818Z,8.84
2023-04-05T02:51:10.837Z,8.84
2023-04-05T02:53:40.621Z,8.86
2023-04-05T02:56:13.757Z,8.88
2023-04-05T02:58:44.416Z,8.87
2023-04-05T03:01:13.006Z,8.92
2023-04-05T03:03:41.660Z,8.94
2023-04-05T03:06:10.512Z,8.97
2023-04-05T03:08:50.626Z,8.99
2023-04-05T03:11:22.057Z,9.04
2023-04-05T03:13:55.083Z,9.05
2023-04-05T03:16:32.971Z,9.08
2023-04-05T03:19:05.606Z,9.10
2023-04-05T03:21:37.914Z,9.13
2023-04-05T03:24:11.530Z,9.16
2023-04-05T03:26:49.033Z,9.17
2023-04-05T03:29:17.976Z,9.19
2023-04-05T03:31:47.214Z,9.21
2023-04-05T03:34:16.885Z,9.23
2023-04-05T03:36:47.957Z,9.25
2023-04-05T03:39:25.103Z,9.24
2023-04-05T03:41:54.028Z,9.25
2023-04-05T03:44:22.454Z,9.27
2023-04-05T03:46:50.687Z,9.29
2023-04-05T03:49:20.038Z,9.30
2023-04-05T03:51:48.543Z,9.31
2023-04-05T03:54:19.960Z,9.32
2023-04-05T03:56:48.590Z,9.33
2023-04-05T03:59:19.942Z,9.33
2023-04-05T04:01:50.366Z,9.34
2023-04-05T04:04:21.131Z,9.35
2023-04-05T04:06:51.748Z,9.37
2023-04-05T04:09:24.180Z,9.39
2023-04-05T04:11:52.469Z,9.41
2023-04-05T04:14:23.804Z,9.43
2023-04-05T04:17:03.960Z,9.46
2023-04-05T04:20:10.987Z,9.50
2023-04-05T04:22:54.055Z,9.56
2023-04-05T04:25:54.952Z,9.62
2023-04-05T04:28:43.918Z,9.70
2023-04-05T04:31:25.243Z,9.78
2023-04-05T04:34:14.100Z,9.87
2023-04-05T04:37:01.117Z,9.97
2023-04-05T04:39:39.778Z,10.09
2023-04-05T04:42:39.018Z,10.26
2023-04-05T04:45:19.060Z,10.42
2023-04-05T04:47:53.884Z,10.61
2023-04-05T04:50:40.542Z,10.90
2023-04-05T04:53:09.547Z,11.23
2023-04-05T04:55:42.917Z,11.52
2023-04-05T04:58:12.631Z,11.75
2023-04-05T05:00:44.652Z,11.97
2023-04-05T05:03:15.231Z,12.18
2023-04-05T05:05:44.381Z,12.25
2023-04-05T05:08:13.694Z,12.29
2023-04-05T05:10:43.567Z,12.44
2023-04-05T05:13:12.435Z,12.59
2023-04-05T05:15:43.922Z,12.68
2023-04-05T05:18:12.666Z,12.80
2023-04-05T05:20:43.259Z,12.96
2023-04-05T05:23:11.994Z,13.09
2023-04-05T05:25:40.339Z,13.11
2023-04-05T05:28:08.750Z,13.03
2023-04-05T05:30:39.729Z,12.97
2023-04-05T05:33:08.738Z,12.90
2023-04-05T05:35:38.231Z,12.87
2023-04-05T05:38:09.354Z,12.90
2023-04-05T05:40:39.315Z,12.98
2023-04-05T05:43:08.604Z,13.12
2023-04-05T05:45:37.344Z,13.20
2023-04-05T05:48:06.739Z,13.27
2023-04-05T05:50:35.391Z,13.44
2023-04-05T05:53:04.026Z,13.60
2023-04-05T05:55:32.736Z,13.68
2023-04-05T05:58:01.070Z,13.68
2023-04-05T06:00:29.528Z,13.66
2023-04-05T06:02:59.470Z,13.61
2023-04-05T06:05:27.968Z,13.61
2023-04-05T06:07:56.166Z,13.60
2023-04-05T06:10:25.371Z,13.58
2023-04-05T06:12:54.011Z,13.59
2023-04-05T06:15:22.244Z,13.64
2023-04-05T06:17:50.501Z,13.78
2023-04-05T06:20:18.955Z,13.94
2023-04-05T06:22:48.447Z,14.08
2023-04-05T06:25:18.327Z,14.16
2023-04-05T06:27:46.718Z,14.22
2023-04-05T06:30:15.106Z,14.28
2023-04-05T06:32:43.617Z,14.42
2023-04-05T06:35:12.842Z,14.58
2023-04-05T06:37:45.493Z,14.79
2023-04-05T06:40:13.990Z,14.92
2023-04-05T06:42:44.613Z,15.02
2023-04-05T06:45:13.763Z,15.09
2023-04-05T06:47:42.362Z,15.18
2023-04-05T06:50:10.922Z,15.37
2023-04-05T06:52:39.174Z,15.72
2023-04-05T06:55:08.666Z,16.02
2023-04-05T06:57:37.166Z,16.19
2023-04-05T07:00:13.325Z,16.26
2023-04-05T07:02:43.647Z,16.26
2023-04-05T07:05:11.980Z,16.34
2023-04-05T07:07:42.632Z,16.42
2023-04-05T07:10:11.392Z,16.53
2023-04-05T07:12:39.845Z,16.63
2023-04-05T07:15:15.858Z,16.79
2023-04-05T07:17:44.984Z,16.90
2023-04-05T07:20:14.266Z,16.98
2023-04-05T07:22:43.351Z,17.14
2023-04-05T07:25:12.552Z,17.37
2023-04-05T07:27:41.151Z,17.73
2023-04-05T07:30:09.801Z,18.05
2023-04-05T07:32:38.634Z,18.31
2023-04-05T07:35:07.594Z,18.67
2023-04-05T07:37:37.427Z,19.00
2023-04-05T07:40:06.455Z,19.25
2023-04-05T07:42:36.783Z,19.49
2023-04-05T07:45:06.590Z,19.55
2023-04-05T07:47:35.665Z,19.56
2023-04-05T07:50:04.769Z,19.41
2023-04-05T07:52:34.651Z,19.30
2023-04-05T07:55:03.123Z,19.29
2023-04-05T07:57:32.598Z,19.18
2023-04-05T08:00:01.131Z,19.13
2023-04-05T08:02:34.429Z,19.07
2023-04-05T08:05:04.087Z,18.97
2023-04-05T08:07:32.704Z,18.74
2023-04-05T08:10:01.737Z,18.37
2023-04-05T08:12:32.672Z,18.08
2023-04-05T08:15:01.096Z,17.98
2023-04-05T08:17:33.072Z,18.00
2023-04-05T08:20:01.410Z,18.04
2023-04-05T08:22:29.928Z,18.10
2023-04-05T08:24:58.263Z,18.20
2023-04-05T08:27:26.502Z,18.54
2023-04-05T08:29:55.897Z,19.01
2023-04-05T08:32:24.218Z,19.37
2023-04-05T08:34:52.424Z,19.56
2023-04-05T08:37:20.618Z,19.67
2023-04-05T08:39:48.937Z,19.90
2023-04-05T08:42:28.785Z,20.18
2023-04-05T08:44:57.978Z,20.41
2023-04-05T08:47:26.576Z,20.54
2023-04-05T08:49:54.981Z,20.51
2023-04-05T08:52:28.689Z,20.43
2023-04-05T08:54:57.274Z,20.32
2023-04-05T08:57:26.277Z,20.24
2023-04-05T08:59:54.497Z,20.29
2023-04-05T09:02:23.596Z,20.38
2023-04-05T09:04:52.115Z,20.48
2023-04-05T09:07:20.916Z,20.68
2023-04-05T09:09:53.727Z,20.90
2023-04-05T09:12:22.996Z,20.98
2023-04-05T09:14:51.632Z,21.03
2023-04-05T09:17:20.002Z,21.08
2023-04-05T09:19:50.558Z,21.11
2023-04-05T09:22:19.030Z,21.10
2023-04-05T09:24:47.394Z,21.02
2023-04-05T09:27:19.777Z,20.93
2023-04-05T09:29:55.545Z,20.92
2023-04-05T09:32:25.987Z,21.00
2023-04-05T09:34:54.449Z,21.08
2023-04-05T09:37:29.539Z,21.13
2023-04-05T09:40:08.829Z,21.11
2023-04-05T09:42:47.102Z,21.03
2023-04-05T09:45:16.443Z,20.96
2023-04-05T09:47:57.599Z,21.00
2023-04-05T09:50:26.156Z,21.20
2023-04-05T09:53:15.975Z,21.49
2023-04-05T09:55:45.380Z,21.65
2023-04-05T09:58:18.873Z,21.47
2023-04-05T10:01:03.281Z,21.26
2023-04-05T10:03:50.386Z,21.03
2023-04-05T10:06:18.825Z,20.72
2023-04-05T10:08:47.401Z,20.43
2023-04-05T10:11:18.200Z,20.19
2023-04-05T10:13:46.457Z,20.09
2023-04-05T10:16:17.854Z,20.09
2023-04-05T10:18:49.834Z,20.15
2023-04-05T10:21:23.942Z,20.33
2023-04-05T10:23:59.959Z,20.43
2023-04-05T10:26:56.490Z,20.52
2023-04-05T10:29:39.801Z,20.52
2023-04-05T10:32:13.806Z,20.56
2023-04-05T10:35:01.142Z,20.66
2023-04-05T10:37:52.889Z,20.81
2023-04-05T10:40:22.616Z,21.04
2023-04-05T10:42:50.921Z,21.17
2023-04-05T10:45:23.310Z,21.15
2023-04-05T10:47:58.228Z,21.14
2023-04-05T10:50:26.921Z,21.04
2023-04-05T10:52:55.907Z,20.86
2023-04-05T10:55:24.227Z,20.67
2023-04-05T10:57:53.046Z,20.50
2023-04-05T11:00:22.777Z,20.41
2023-04-05T11:02:54.956Z,20.38
2023-04-05T11:05:31.690Z,20.37
2023-04-05T11:08:04.078Z,20.41
2023-04-05T11:10:35.366Z,20.58
2023-04-05T11:13:06.846Z,20.75
2023-04-05T11:15:36.162Z,20.81
2023-04-05T11:18:17.552Z,20.98
2023-04-05T11:20:56.124Z,21.22
2023-04-05T11:23:29.332Z,21.35
2023-04-05T11:26:05.075Z,21.37
2023-04-05T11:28:39.475Z,21.38
2023-04-05T11:31:20.883Z,21.30
2023-04-05T11:34:10.550Z,21.30
2023-04-05T11:36:42.131Z,21.38
2023-04-05T11:39:19.782Z,21.43
2023-04-05T11:42:07.160Z,21.41
2023-04-05T11:44:43.720Z,21.37
2023-04-05T11:47:13.313Z,21.44
2023-04-05T11:49:42.600Z,21.51
2023-04-05T11:52:21.439Z,21.43
2023-04-05T11:54:50.230Z,21.28
2023-04-05T11:57:20.159Z,21.13
2023-04-05T11:59:51.868Z,21.07
2023-04-05T12:02:20.593Z,21.13
2023-04-05T12:04:58.641Z,21.21
2023-04-05T12:07:29.311Z,21.25
2023-04-05T12:10:08.898Z,21.25
2023-04-05T12:12:39.360Z,21.16
2023-04-05T12:15:08.873Z,21.07
2023-04-05T12:17:43.061Z,21.06
2023-04-05T12:20:13.348Z,21.00
2023-04-05T12:22:43.326Z,20.91
2023-04-05T12:25:11.792Z,20.86
2023-04-05T12:27:40.844Z,20.92
2023-04-05T12:30:17.959Z,21.03
2023-04-05T12:32:51.954Z,21.13
2023-04-05T12:35:32.342Z,21.16
2023-04-05T12:38:05.879Z,21.20
2023-04-05T12:40:34.716Z,21.32
2023-04-05T12:43:04.478Z,21.43
2023-04-05T12:45:44.075Z,21.42
2023-04-05T12:48:14.153Z,21.47
2023-04-05T12:50:44.199Z,21.59
2023-04-05T12:53:18.369Z,21.66
2023-04-05T12:55:55.166Z,21.50
2023-04-05T12:58:32.351Z,21.34
2023-04-05T13:01:01.024Z,21.29
2023-04-05T13:03:29.962Z,21.24
2023-04-05T13:06:00.065Z,21.21
2023-04-05T13:08:29.757Z,21.20
2023-04-05T13:10:58.352Z,21.15
2023-04-05T13:13:26.695Z,21.10
2023-04-05T13:15:56.200Z,21.05
2023-04-05T13:18:24.496Z,21.01
2023-04-05T13:20:54.875Z,20.99
2023-04-05T13:23:24.830Z,21.00
2023-04-05T13:25:53.333Z,20.99
2023-04-05T13:28:21.601Z,20.99
2023-04-05T13:30:50.954Z,20.96
2023-04-05T13:33:20.519Z,20.90
2023-04-05T13:35:48.818Z,20.82
2023-04-05T13:38:17.265Z,20.77
2023-04-05T13:40:45.522Z,20.69
2023-04-05T13:43:13.767Z,20.62
2023-04-05T13:45:43.849Z,20.57
2023-04-05T13:48:12.873Z,20.53
2023-04-05T13:50:41.527Z,20.44
2023-04-05T13:53:10.878Z,20.40
2023-04-05T13:55:39.831Z,20.35
2023-04-05T13:58:08.279Z,20.29
2023-04-05T14:00:36.653Z,20.23
2023-04-05T14:03:07.557Z,20.19
2023-04-05T14:05:36.102Z,20.14
2023-04-05T14:08:04.545Z,20.11
2023-04-05T14:10:38.084Z,20.06
2023-04-05T14:13:06.883Z,20.00
2023-04-05T14:15:36.091Z,19.94
2023-04-05T14:18:11.033Z,19.90
2023-04-05T14:20:40.287Z,19.84
2023-04-05T14:23:08.996Z,19.79
2023-04-05T14:25:38.230Z,19.73
2023-04-05T14:28:07.599Z,19.68
2023-04-05T14:30:38.624Z,19.64
2023-04-05T14:33:07.793Z,19.59
2023-04-05T14:35:36.139Z,19.56
2023-04-05T14:38:04.575Z,19.51
2023-04-05T14:40:33.246Z,19.47
2023-04-05T14:43:02.205Z,19.44
2023-04-05T14:45:32.132Z,19.41
2023-04-05T14:48:00.855Z,19.39
2023-04-05T14:50:32.611Z,19.36
2023-04-05T14:53:04.227Z,19.33
2023-04-05T14:55:32.485Z,19.29
2023-04-05T14:58:01.302Z,19.24
2023-04-05T15:00:29.909Z,19.20
2023-04-05T15:03:01.518Z,19.16
2023-04-05T15:05:31.167Z,19.11
2023-04-05T15:07:59.468Z,19.06
2023-04-05T15:10:39.539Z,19.00
2023-04-05T15:13:10.373Z,18.94
2023-04-05T15:15:38.778Z,18.89
2023-04-05T15:18:21.612Z,18.84
2023-04-05T15:20:51.113Z,18.78
2023-04-05T15:23:19.529Z,18.72
2023-04-05T15:25:47.926Z,18.66
2023-04-05T15:28:16.435Z,18.62
2023-04-05T15:30:46.843Z,18.55
2023-04-05T15:33:16.065Z,18.48
2023-04-05T15:35:44.432Z,18.42
2023-04-05T15:38:13.526Z,18.36
2023-04-05T15:40:42.012Z,18.33
2023-04-05T15:43:10.541Z,18.27
2023-04-05T15:45:39.209Z,18.19
2023-04-05T15:48:07.575Z,18.15
2023-04-05T15:50:36.728Z,18.11
2023-04-05T15:53:05.021Z,18.08
2023-04-05T15:55:34.276Z,18.11
2023-04-05T15:58:03.321Z,18.08
2023-04-05T16:00:33.595Z,18.04
2023-04-05T16:03:02.726Z,17.99
2023-04-05T16:05:31.267Z,17.93
2023-04-05T16:07:59.846Z,17.84
2023-04-05T16:10:28.283Z,17.82
2023-04-05T16:13:01.968Z,17.82
2023-04-05T16:15:30.736Z,17.74
2023-04-05T16:17:59.334Z,17.66
2023-04-05T16:20:30.293Z,17.64
2023-04-05T16:22:59.144Z,17.58
2023-04-05T16:25:27.530Z,17.51
2023-04-05T16:27:56.544Z,17.48
2023-04-05T16:30:24.908Z,17.46
2023-04-05T16:32:53.583Z,17.43
2023-04-05T16:35:22.154Z,17.38
2023-04-05T16:37:51.104Z,17.32
2023-04-05T16:40:19.546Z,17.26
2023-04-05T16:42:48.259Z,17.20
2023-04-05T16:45:16.837Z,17.19
2023-04-05T16:47:45.670Z,17.15
2023-04-05T16:50:13.953Z,17.11
2023-04-05T16:52:42.450Z,17.09
2023-04-05T16:55:11.278Z,17.08
2023-04-05T16:57:44.560Z,17.06
2023-04-05T17:00:13.502Z,17.03
2023-04-05T17:02:43.971Z,17.00
2023-04-05T17:05:13.189Z,16.97
2023-04-05T17:07:44.766Z,16.95
2023-04-05T17:10:13.385Z,16.97
2023-04-05T17:12:52.108Z,16.97
2023-04-05T17:15:20.790Z,16.95
2023-04-05T17:17:49.879Z,16.92
2023-04-05T17:20:18.177Z,16.90
2023-04-05T17:22:47.372Z,16.89
2023-04-05T17:25:15.834Z,16.87
2023-04-05T17:27:44.322Z,16.85
2023-04-05T17:30:13.197Z,16.83
2023-04-05T17:32:51.776Z,16.80
2023-04-05T17:35:20.729Z,16.76
2023-04-05T17:37:49.943Z,16.75
2023-04-05T17:40:18.724Z,16.73
2023-04-05T17:42:48.535Z,16.71
2023-04-05T17:45:17.241Z,16.69
2023-04-05T17:47:46.725Z,16.65
2023-04-05T17:50:15.558Z,16.59
2023-04-05T17:52:46.809Z,16.54
2023-04-05T17:55:15.179Z,16.48
2023-04-05T17:57:44.726Z,16.43
2023-04-05T18:00:13.577Z,16.38
2023-04-05T18:02:42.766Z,16.35
2023-04-05T18:05:11.916Z,16.33
2023-04-05T18:07:42.649Z,16.32
2023-04-05T18:10:11.368Z,16.29
2023-04-05T18:12:39.986Z,16.24
2023-04-05T18:15:08.647Z,16.20
2023-04-05T18:17:40.707Z,16.15
2023-04-05T18:20:09.577Z,16.09
2023-04-05T18:22:38.176Z,16.03
2023-04-05T18:25:08.836Z,15.96
2023-04-05T18:27:38.745Z,15.88
2023-04-05T18:30:07.918Z,15.81
2023-04-05T18:32:36.978Z,15.76
2023-04-05T18:35:05.713Z,15.71
2023-04-05T18:37:34.909Z,15.66
2023-04-05T18:40:07.015Z,15.62
2023-04-05T18:42:40.108Z,15.58
2023-04-05T18:45:09.076Z,15.54
2023-04-05T18:47:37.432Z,15.50
2023-04-05T18:50:10.163Z,15.45
2023-04-05T18:52:38.635Z,15.42
2023-04-05T18:55:08.388Z,15.38
2023-04-05T18:57:37.124Z,15.37
2023-04-05T19:00:07.208Z,15.36
2023-04-05T19:02:36.601Z,15.33
2023-04-05T19:05:05.590Z,15.31
2023-04-05T19:07:34.337Z,15.27
2023-04-05T19:10:03.425Z,15.24
2023-04-05T19:12:32.237Z,15.20
2023-04-05T19:15:03.648Z,15.16
2023-04-05T19:17:32.795Z,15.11
2023-04-05T19:20:01.127Z,15.06
2023-04-05T19:22:30.916Z,15.03
2023-04-05T19:25:00.243Z,14.98
2023-04-05T19:27:32.967Z,14.95
2023-04-05T19:30:03.120Z,14.91
2023-04-05T19:32:33.527Z,14.89
2023-04-05T19:35:01.899Z,14.86
2023-04-05T19:37:31.138Z,14.84
2023-04-05T19:39:59.650Z,14.81
2023-04-05T19:42:27.851Z,14.78
2023-04-05T19:44:57.952Z,14.79
2023-04-05T19:47:26.604Z,14.77
2023-04-05T19:49:59.296Z,14.74
2023-04-05T19:52:39.966Z,14.71
2023-04-05T19:55:29.802Z,14.69
2023-04-05T19:57:58.892Z,14.64
2023-04-05T20:00:35.276Z,14.61
2023-04-05T20:03:19.372Z,14.56
2023-04-05T20:05:47.694Z,14.52
2023-04-05T20:08:16.272Z,14.49
2023-04-05T20:10:52.183Z,14.46
2023-04-05T20:13:21.917Z,14.43
2023-04-05T20:15:51.071Z,14.39
2023-04-05T20:18:27.011Z,14.36
2023-04-05T20:21:00.690Z,14.35
2023-04-05T20:23:29.483Z,14.34
2023-04-05T20:25:57.907Z,14.34
2023-04-05T20:28:36.580Z,14.35
2023-04-05T20:31:10.586Z,14.35
2023-04-05T20:33:39.910Z,14.34
2023-04-05T20:36:11.818Z,14.31
2023-04-05T20:38:42.349Z,14.29
2023-04-05T20:41:11.735Z,14.29
2023-04-05T20:43:40.159Z,14.28
2023-04-05T20:46:08.829Z,14.27
2023-04-05T20:48:37.487Z,14.23
2023-04-05T20:51:07.673Z,14.21
2023-04-05T20:53:37.619Z,14.19
2023-04-05T20:56:06.870Z,14.17
2023-04-05T20:58:36.098Z,14.15
2023-04-05T21:01:05.042Z,14.14
2023-04-05T21:04:41.887Z,14.18
2023-04-05T21:07:10.662Z,14.14
2023-04-05T21:09:39.960Z,14.14
2023-04-05T21:12:09.002Z,14.11
2023-04-05T21:14:38.051Z,14.08
2023-04-05T21:17:06.743Z,14.05
2023-04-05T21:19:36.957Z,14.03
2023-04-05T21:22:05.987Z,14.02
2023-04-05T21:24:34.570Z,13.99
2023-04-05T21:27:03.338Z,13.97
2023-04-05T21:29:35.597Z,13.94
2023-04-05T21:32:05.640Z,13.93
2023-04-05T21:34:34.504Z,13.92
2023-04-05T21:37:04.529Z,13.91
2023-04-05T21:39:33.242Z,13.89
2023-04-05T21:42:03.155Z,13.87
2023-04-05T21:44:33.250Z,13.86
2023-04-05T21:47:03.880Z,13.84
2023-04-05T21:49:38.289Z,13.82
2023-04-05T21:52:06.785Z,13.79
2023-04-05T21:54:35.251Z,13.76
2023-04-05T21:57:05.183Z,13.74
2023-04-05T21:59:33.704Z,13.75
2023-04-05T22:02:07.824Z,13.76
2023-04-05T22:04:37.177Z,13.76
2023-04-05T22:07:06.403Z,13.73
2023-04-05T22:09:36.047Z,13.73
2023-04-05T22:12:06.813Z,13.71
2023-04-05T22:14:37.239Z,13.68
2023-04-05T22:17:05.721Z,13.66
2023-04-05T22:19:44.155Z,13.65
2023-04-05T22:22:14.979Z,13.61
2023-04-05T22:24:43.734Z,13.59
2023-04-05T22:27:13.876Z,13.56
2023-04-05T22:29:42.660Z,13.54
2023-04-05T22:32:11.682Z,13.53
2023-04-05T22:34:40.756Z,13.52
2023-04-05T22:37:09.604Z,13.52
2023-04-05T22:39:39.270Z,13.52
2023-04-05T22:42:07.763Z,13.50
2023-04-05T22:44:40.429Z,13.45
2023-04-05T22:47:09.237Z,13.44
2023-04-05T22:49:37.981Z,13.41
2023-04-05T22:52:06.580Z,13.39
2023-04-05T22:54:35.410Z,13.35
2023-04-05T22:57:04.244Z,13.30
2023-04-05T22:59:32.967Z,13.25
2023-04-05T23:02:02.233Z,13.20
2023-04-05T23:04:31.515Z,13.14
2023-04-05T23:07:00.442Z,13.12
2023-04-05T23:09:30.001Z,13.10
2023-04-05T23:11:59.232Z,13.06
2023-04-05T23:14:28.054Z,13.02
2023-04-05T23:16:56.810Z,12.97
2023-04-05T23:19:25.864Z,12.95
2023-04-05T23:21:55.868Z,12.90
2023-04-05T23:24:24.402Z,12.87
2023-04-05T23:26:53.296Z,12.84
2023-04-05T23:29:26.387Z,12.81
2023-04-05T23:31:54.940Z,12.78
2023-04-05T23:34:23.419Z,12.74
2023-04-05T23:36:52.101Z,12.72
2023-04-05T23:39:20.830Z,12.69
2023-04-05T23:41:49.617Z,12.67
2023-04-05T23:44:18.230Z,12.64
2023-04-05T23:46:47.105Z,12.62
2023-04-05T23:49:16.144Z,12.61
2023-04-05T23:51:44.684Z,12.61
2023-04-05T23:54:15.802Z,12.60
2023-04-05T23:56:44.334Z,12.59
2023-04-05T23:59:13.194Z,12.57
